createdAt,value
2022-10-05T00:00:02.040Z,16.10
2022-10-05T00:01:01.961Z,16.10
2022-10-05T00:02:02.972Z,10.70
2022-10-05T00:03:02.953Z,10.70
2022-10-05T00:04:02.959Z,10.70
2022-10-05T00:05:02.635Z,10.70
2022-10-05T00:06:02.587Z,10.70
2022-10-05T00:07:02.802Z,10.50
2022-10-05T00:08:02.981Z,10.50
2022-10-05T00:09:02.904Z,10.50
2022-10-05T00:10:02.801Z,10.50
2022-10-05T00:11:03.363Z,10.50
2022-10-05T00:12:02.034Z,11.30
2022-10-05T00:13:02.614Z,11.30
2022-10-05T00:14:02.450Z,11.30
2022-10-05T00:15:02.255Z,11.30
2022-10-05T00:16:02.413Z,11.30
2022-10-05T00:17:02.191Z,11.90
2022-10-05T00:18:02.488Z,11.90
2022-10-05T00:19:02.594Z,11.90
2022-10-05T00:20:02.122Z,11.90
2022-10-05T00:21:02.300Z,11.90
2022-10-05T00:22:01.919Z,14.00
2022-10-05T00:23:02.322Z,14.00
2022-10-05T00:24:02.237Z,14.00
2022-10-05T00:25:01.906Z,14.00
2022-10-05T00:26:02.419Z,14.00
2022-10-05T00:27:02.424Z,12.20
2022-10-05T00:28:02.224Z,12.20
2022-10-05T00:29:02.482Z,12.20
2022-10-05T00:30:02.302Z,12.20
2022-10-05T00:31:02.209Z,12.20
2022-10-05T00:32:02.636Z,11.60
2022-10-05T00:33:01.993Z,11.60
2022-10-05T00:34:02.609Z,11.60
2022-10-05T00:35:02.247Z,11.60
2022-10-05T00:36:02.133Z,11.60
2022-10-05T00:37:03.145Z,11.40
2022-10-05T00:38:03.045Z,11.40
2022-10-05T00:39:02.923Z,11.40
2022-10-05T00:40:02.836Z,11.40
2022-10-05T00:41:02.741Z,11.40
2022-10-05T00:42:02.316Z,12.20
2022-10-05T00:43:02.843Z,12.20
2022-10-05T00:44:02.274Z,12.20
2022-10-05T00:45:02.749Z,12.20
2022-10-05T00:46:02.728Z,12.20
2022-10-05T00:47:02.966Z,12.90
2022-10-05T00:48:02.755Z,12.90
2022-10-05T00:49:02.627Z,12.90
2022-10-05T00:50:02.682Z,12.90
2022-10-05T00:51:02.726Z,12.90
2022-10-05T00:52:02.651Z,13.90
2022-10-05T00:53:02.276Z,13.90
2022-10-05T00:54:02.217Z,13.90
2022-10-05T00:55:02.811Z,13.90
2022-10-05T00:56:02.571Z,13.90
2022-10-05T00:57:02.842Z,13.00
2022-10-05T00:58:02.523Z,13.00
2022-10-05T00:59:02.355Z,13.00
2022-10-05T01:00:02.216Z,13.00
2022-10-05T01:01:02.860Z,13.00
2022-10-05T01:02:02.550Z,12.90
2022-10-05T01:03:02.434Z,12.90
2022-10-05T01:04:02.307Z,12.90
2022-10-05T01:05:02.494Z,12.90
2022-10-05T01:06:02.346Z,12.90
2022-10-05T01:07:03.294Z,9.70
2022-10-05T01:08:03.121Z,9.70
2022-10-05T01:09:02.975Z,9.70
2022-10-05T01:10:02.788Z,9.70
2022-10-05T01:11:03.282Z,9.70
2022-10-05T01:12:02.626Z,10.60
2022-10-05T01:13:02.451Z,10.60
2022-10-05T01:14:02.978Z,10.60
2022-10-05T01:15:02.550Z,10.60
2022-10-05T01:16:02.937Z,10.60
2022-10-05T01:17:02.381Z,11.00
2022-10-05T01:18:02.324Z,11.00
2022-10-05T01:19:02.126Z,11.00
2022-10-05T01:20:02.600Z,11.00
2022-10-05T01:21:02.225Z,11.00
2022-10-05T01:22:02.718Z,13.40
2022-10-05T01:23:02.538Z,13.40
2022-10-05T01:24:02.626Z,13.40
2022-10-05T01:25:02.520Z,13.40
2022-10-05T01:26:02.620Z,13.40
2022-10-05T01:27:03.161Z,9.00
2022-10-05T01:28:03.042Z,9.00
2022-10-05T01:29:02.999Z,9.00
2022-10-05T01:30:02.834Z,9.00
2022-10-05T01:31:03.471Z,9.00
2022-10-05T01:32:02.853Z,11.20
2022-10-05T01:33:02.602Z,11.20
2022-10-05T01:34:05.782Z,11.20
2022-10-05T01:35:02.774Z,11.20
2022-10-05T01:36:02.590Z,11.20
2022-10-05T01:37:02.174Z,9.20
2022-10-05T01:38:02.599Z,9.20
2022-10-05T01:39:02.060Z,9.20
2022-10-05T01:40:02.460Z,9.20
2022-10-05T01:41:02.288Z,9.20
2022-10-05T01:42:02.784Z,11.20
2022-10-05T01:43:02.715Z,11.20
2022-10-05T01:44:02.450Z,11.20
2022-10-05T01:45:02.960Z,11.20
2022-10-05T01:46:02.570Z,11.20
2022-10-05T01:47:03.139Z,11.70
2022-10-05T01:48:02.966Z,11.70
2022-10-05T01:49:02.933Z,11.70
2022-10-05T01:50:03.055Z,11.70
2022-10-05T01:51:03.125Z,11.70
2022-10-05T01:52:02.606Z,11.40
2022-10-05T01:53:02.443Z,11.40
2022-10-05T01:54:02.279Z,11.40
2022-10-05T01:55:02.826Z,11.40
2022-10-05T01:56:02.470Z,11.40
2022-10-05T01:57:02.785Z,12.90
2022-10-05T01:58:02.651Z,12.90
2022-10-05T01:59:03.181Z,12.90
2022-10-05T02:00:02.670Z,12.90
2022-10-05T02:01:02.574Z,12.90
2022-10-05T02:02:02.191Z,14.50
2022-10-05T02:03:01.675Z,14.50
2022-10-05T02:04:02.248Z,14.50
2022-10-05T02:05:03.006Z,14.50
2022-10-05T02:06:02.239Z,14.50
2022-10-05T02:07:02.656Z,13.30
2022-10-05T02:08:02.187Z,13.30
2022-10-05T02:09:02.336Z,13.30
2022-10-05T02:10:02.182Z,13.30
2022-10-05T02:11:02.844Z,13.30
2022-10-05T02:12:02.267Z,12.40
2022-10-05T02:13:02.089Z,12.40
2022-10-05T02:14:01.675Z,12.40
2022-10-05T02:15:02.030Z,12.40
2022-10-05T02:16:02.182Z,12.40
2022-10-05T02:17:02.563Z,12.80
2022-10-05T02:18:02.619Z,12.80
2022-10-05T02:19:02.451Z,12.80
2022-10-05T02:20:02.290Z,12.80
2022-10-05T02:21:02.734Z,12.80
2022-10-05T02:22:02.947Z,13.60
2022-10-05T02:23:02.787Z,13.60
2022-10-05T02:24:02.778Z,13.60
2022-10-05T02:25:03.051Z,13.60
2022-10-05T02:26:02.667Z,13.60
2022-10-05T02:27:02.216Z,28.00
2022-10-05T02:28:01.934Z,28.00
2022-10-05T02:29:02.109Z,28.00
2022-10-05T02:30:01.794Z,28.00
2022-10-05T02:31:02.232Z,28.00
2022-10-05T02:32:02.435Z,17.00
2022-10-05T02:33:02.110Z,17.00
2022-10-05T02:34:02.319Z,17.00
2022-10-05T02:35:02.161Z,17.00
2022-10-05T02:36:02.055Z,17.00
2022-10-05T02:37:02.597Z,17.60
2022-10-05T02:38:02.201Z,17.60
2022-10-05T02:39:02.771Z,17.60
2022-10-05T02:40:02.331Z,17.60
2022-10-05T02:41:02.640Z,17.60
2022-10-05T02:42:01.548Z,17.00
2022-10-05T02:43:01.787Z,17.00
2022-10-05T02:44:01.640Z,17.00
2022-10-05T02:45:01.560Z,17.00
2022-10-05T02:46:02.195Z,17.00
2022-10-05T02:47:02.083Z,15.90
2022-10-05T02:48:02.257Z,15.90
2022-10-05T02:49:02.684Z,15.90
2022-10-05T02:50:02.355Z,15.90
2022-10-05T02:51:02.726Z,15.90
2022-10-05T02:52:02.324Z,19.20
2022-10-05T02:53:02.932Z,19.20
2022-10-05T02:54:02.822Z,19.20
2022-10-05T02:55:02.693Z,19.20
2022-10-05T02:56:02.900Z,19.20
2022-10-05T02:57:02.221Z,17.00
2022-10-05T02:58:02.030Z,17.00
2022-10-05T02:59:02.353Z,17.00
2022-10-05T03:00:01.885Z,17.00
2022-10-05T03:01:01.974Z,17.00
2022-10-05T03:02:02.031Z,20.80
2022-10-05T03:03:01.858Z,20.80
2022-10-05T03:04:02.311Z,20.80
2022-10-05T03:05:02.215Z,20.80
2022-10-05T03:06:02.132Z,20.80
2022-10-05T03:07:02.128Z,19.30
2022-10-05T03:08:02.477Z,19.30
2022-10-05T03:09:02.383Z,19.30
2022-10-05T03:10:02.354Z,19.30
2022-10-05T03:11:02.296Z,19.30
2022-10-05T03:12:02.184Z,18.50
2022-10-05T03:13:02.522Z,18.50
2022-10-05T03:14:02.395Z,18.50
2022-10-05T03:15:02.743Z,18.50
2022-10-05T03:16:02.535Z,18.50
2022-10-05T03:17:02.512Z,16.80
2022-10-05T03:18:03.030Z,16.80
2022-10-05T03:19:02.594Z,16.80
2022-10-05T03:20:02.479Z,16.80
2022-10-05T03:21:02.507Z,16.80
2022-10-05T03:22:02.137Z,20.30
2022-10-05T03:23:02.270Z,20.30
2022-10-05T03:24:02.162Z,20.30
2022-10-05T03:25:02.595Z,20.30
2022-10-05T03:26:02.393Z,20.30
2022-10-05T03:27:02.174Z,17.90
2022-10-05T03:28:02.362Z,17.90
2022-10-05T03:29:02.750Z,17.90
2022-10-05T03:30:02.795Z,17.90
2022-10-05T03:31:02.428Z,17.90
2022-10-05T03:32:02.650Z,22.20
2022-10-05T03:33:02.646Z,22.20
2022-10-05T03:34:02.921Z,22.20
2022-10-05T03:35:02.770Z,22.20
2022-10-05T03:36:02.627Z,22.20
2022-10-05T03:37:02.523Z,18.90
2022-10-05T03:38:02.495Z,18.90
2022-10-05T03:39:02.351Z,18.90
2022-10-05T03:40:02.050Z,18.90
2022-10-05T03:41:02.193Z,18.90
2022-10-05T03:42:03.210Z,18.50
2022-10-05T03:43:02.884Z,18.50
2022-10-05T03:44:02.576Z,18.50
2022-10-05T03:45:03.227Z,18.50
2022-10-05T03:46:02.615Z,18.50
2022-10-05T03:47:02.150Z,19.00
2022-10-05T03:48:02.386Z,19.00
2022-10-05T03:49:02.566Z,19.00
2022-10-05T03:50:02.332Z,19.00
2022-10-05T03:51:02.220Z,19.00
2022-10-05T03:52:02.774Z,14.80
2022-10-05T03:53:02.674Z,14.80
2022-10-05T03:54:02.537Z,14.80
2022-10-05T03:55:02.745Z,14.80
2022-10-05T03:56:03.447Z,14.80
2022-10-05T03:57:02.156Z,16.60
2022-10-05T03:58:01.914Z,16.60
2022-10-05T03:59:02.360Z,16.60
2022-10-05T04:00:01.851Z,16.60
2022-10-05T04:01:02.436Z,16.60
2022-10-05T04:02:02.761Z,20.30
2022-10-05T04:03:02.686Z,20.30
2022-10-05T04:04:02.765Z,20.30
2022-10-05T04:05:02.657Z,20.30
2022-10-05T04:06:02.583Z,20.30
2022-10-05T04:07:02.201Z,14.10
2022-10-05T04:08:02.452Z,14.10
2022-10-05T04:09:02.230Z,14.10
2022-10-05T04:10:02.107Z,14.10
2022-10-05T04:11:01.968Z,14.10
2022-10-05T04:12:02.513Z,15.40
2022-10-05T04:13:02.478Z,15.40
2022-10-05T04:14:02.762Z,15.40
2022-10-05T04:15:02.723Z,15.40
2022-10-05T04:16:02.671Z,15.40
2022-10-05T04:17:02.110Z,16.40
2022-10-05T04:18:01.911Z,16.40
2022-10-05T04:19:01.872Z,16.40
2022-10-05T04:20:02.343Z,16.40
2022-10-05T04:21:02.010Z,16.40
2022-10-05T04:22:02.477Z,14.40
2022-10-05T04:23:02.001Z,14.40
2022-10-05T04:24:01.976Z,14.40
2022-10-05T04:25:02.510Z,14.40
2022-10-05T04:26:02.300Z,14.40
2022-10-05T04:27:02.492Z,22.80
2022-10-05T04:28:02.368Z,22.80
2022-10-05T04:29:02.590Z,22.80
2022-10-05T04:30:02.183Z,22.80
2022-10-05T04:31:02.746Z,22.80
2022-10-05T04:32:02.218Z,17.40
2022-10-05T04:33:02.048Z,17.40
2022-10-05T04:34:01.895Z,17.40
2022-10-05T04:35:01.739Z,17.40
2022-10-05T04:36:01.836Z,17.40
2022-10-05T04:37:02.516Z,14.50
2022-10-05T04:38:02.436Z,14.50
2022-10-05T04:39:02.372Z,14.50
2022-10-05T04:40:02.305Z,14.50
2022-10-05T04:41:02.188Z,14.50
2022-10-05T04:42:02.655Z,14.10
2022-10-05T04:43:02.544Z,14.10
2022-10-05T04:44:02.464Z,14.10
2022-10-05T04:45:02.371Z,14.10
2022-10-05T04:46:02.122Z,14.10
2022-10-05T04:47:02.603Z,18.30
2022-10-05T04:48:02.559Z,18.30
2022-10-05T04:49:02.270Z,18.30
2022-10-05T04:50:02.408Z,18.30
2022-10-05T04:51:02.367Z,18.30
2022-10-05T04:52:01.984Z,15.80
2022-10-05T04:53:01.946Z,15.80
2022-10-05T04:54:01.797Z,15.80
2022-10-05T04:55:02.257Z,15.80
2022-10-05T04:56:01.768Z,15.80
2022-10-05T04:57:02.555Z,14.70
2022-10-05T04:58:02.249Z,14.70
2022-10-05T04:59:02.080Z,14.70
2022-10-05T05:00:02.275Z,14.70
2022-10-05T05:01:02.418Z,14.70
2022-10-05T05:02:02.870Z,15.70
2022-10-05T05:03:02.806Z,15.70
2022-10-05T05:04:02.650Z,15.70
2022-10-05T05:05:02.492Z,15.70
2022-10-05T05:06:16.996Z,15.70
2022-10-05T05:07:02.574Z,15.00
2022-10-05T05:08:02.255Z,15.00
2022-10-05T05:09:02.190Z,15.00
2022-10-05T05:10:02.370Z,15.00
2022-10-05T05:11:02.288Z,15.00
2022-10-05T05:12:01.560Z,14.90
2022-10-05T05:13:02.118Z,14.90
2022-10-05T05:14:01.694Z,14.90
2022-10-05T05:15:01.657Z,14.90
2022-10-05T05:16:01.976Z,14.90
2022-10-05T05:17:02.517Z,19.00
2022-10-05T05:18:02.007Z,19.00
2022-10-05T05:19:02.168Z,19.00
2022-10-05T05:20:01.998Z,19.00
2022-10-05T05:21:02.551Z,19.00
2022-10-05T05:22:02.454Z,18.40
2022-10-05T05:23:02.834Z,18.40
2022-10-05T05:24:02.290Z,18.40
2022-10-05T05:25:02.706Z,18.40
2022-10-05T05:26:02.671Z,18.40
2022-10-05T05:27:02.007Z,15.20
2022-10-05T05:28:02.044Z,15.20
2022-10-05T05:29:02.086Z,15.20
2022-10-05T05:30:01.674Z,15.20
2022-10-05T05:31:02.344Z,15.20
2022-10-05T05:32:02.170Z,14.80
2022-10-05T05:33:01.997Z,14.80
2022-10-05T05:34:02.008Z,14.80
2022-10-05T05:35:02.517Z,14.80
2022-10-05T05:36:02.647Z,14.80
2022-10-05T05:37:02.366Z,14.90
2022-10-05T05:38:02.910Z,14.90
2022-10-05T05:39:02.473Z,14.90
2022-10-05T05:40:02.407Z,14.90
2022-10-05T05:41:02.974Z,14.90
2022-10-05T05:42:01.637Z,14.80
2022-10-05T05:43:01.657Z,14.80
2022-10-05T05:44:02.205Z,14.80
2022-10-05T05:45:02.198Z,14.80
2022-10-05T05:46:02.196Z,14.80
2022-10-05T05:47:04.491Z,15.50
2022-10-05T05:48:02.362Z,15.50
2022-10-05T05:49:01.882Z,15.50
2022-10-05T05:50:07.097Z,15.50
2022-10-05T05:51:02.139Z,15.50
2022-10-05T05:52:02.085Z,14.70
2022-10-05T05:53:02.303Z,14.70
2022-10-05T05:54:02.365Z,14.70
2022-10-05T05:55:02.361Z,14.70
2022-10-05T05:56:02.089Z,14.70
2022-10-05T05:57:01.919Z,18.80
2022-10-05T05:58:02.023Z,18.80
2022-10-05T05:59:01.936Z,18.80
2022-10-05T06:00:01.763Z,18.80
2022-10-05T06:01:01.847Z,18.80
2022-10-05T06:02:02.003Z,14.30
2022-10-05T06:03:01.909Z,14.30
2022-10-05T06:04:02.079Z,14.30
2022-10-05T06:05:02.076Z,14.30
2022-10-05T06:06:01.873Z,14.30
2022-10-05T06:07:02.164Z,14.00
2022-10-05T06:08:02.374Z,14.00
2022-10-05T06:09:02.346Z,14.00
2022-10-05T06:10:02.369Z,14.00
2022-10-05T06:11:02.398Z,14.00
2022-10-05T06:12:01.502Z,20.10
2022-10-05T06:13:01.952Z,20.10
2022-10-05T06:14:01.511Z,20.10
2022-10-05T06:15:01.698Z,20.10
2022-10-05T06:16:01.759Z,20.10
2022-10-05T06:17:02.420Z,17.90
2022-10-05T06:18:02.568Z,17.90
2022-10-05T06:19:02.361Z,17.90
2022-10-05T06:20:05.235Z,17.90
2022-10-05T06:21:02.400Z,17.90
2022-10-05T06:22:01.866Z,18.10
2022-10-05T06:23:01.802Z,18.10
2022-10-05T06:24:02.072Z,18.10
2022-10-05T06:25:01.943Z,18.10
2022-10-05T06:26:01.891Z,18.10
2022-10-05T06:27:02.853Z,15.70
2022-10-05T06:28:02.981Z,15.70
2022-10-05T06:29:02.831Z,15.70
2022-10-05T06:30:02.844Z,15.70
2022-10-05T06:31:02.881Z,15.70
2022-10-05T06:32:02.756Z,18.60
2022-10-05T06:33:02.712Z,18.60
2022-10-05T06:34:02.818Z,18.60
2022-10-05T06:35:02.488Z,18.60
2022-10-05T06:36:02.388Z,18.60
2022-10-05T06:37:02.336Z,15.80
2022-10-05T06:38:01.986Z,15.80
2022-10-05T06:39:02.603Z,15.80
2022-10-05T06:40:02.340Z,15.80
2022-10-05T06:41:02.252Z,15.80
2022-10-05T06:42:02.021Z,13.70
2022-10-05T06:43:01.782Z,13.70
2022-10-05T06:44:01.873Z,13.70
2022-10-05T06:45:01.876Z,13.70
2022-10-05T06:46:01.891Z,13.70
2022-10-05T06:47:02.207Z,18.50
2022-10-05T06:48:05.318Z,18.50
2022-10-05T06:49:02.156Z,18.50
2022-10-05T06:50:02.125Z,18.50
2022-10-05T06:51:02.068Z,18.50
2022-10-05T06:52:02.349Z,14.70
2022-10-05T06:53:02.374Z,14.70
2022-10-05T06:54:02.456Z,14.70
2022-10-05T06:55:02.232Z,14.70
2022-10-05T06:56:01.973Z,14.70
2022-10-05T06:57:02.627Z,18.20
2022-10-05T06:58:02.601Z,18.20
2022-10-05T06:59:02.666Z,18.20
2022-10-05T07:00:02.584Z,18.20
2022-10-05T07:01:02.697Z,18.20
2022-10-05T07:02:02.161Z,15.70
2022-10-05T07:03:01.680Z,15.70
2022-10-05T07:04:01.761Z,15.70
2022-10-05T07:05:01.688Z,15.70
2022-10-05T07:06:01.956Z,15.70
2022-10-05T07:07:02.703Z,16.70
2022-10-05T07:08:02.631Z,16.70
2022-10-05T07:09:02.556Z,16.70
2022-10-05T07:10:02.375Z,16.70
2022-10-05T07:11:02.372Z,16.70
2022-10-05T07:12:05.161Z,17.40
2022-10-05T07:13:02.164Z,17.40
2022-10-05T07:14:02.079Z,17.40
2022-10-05T07:15:02.186Z,17.40
2022-10-05T07:16:02.293Z,17.40
2022-10-05T07:17:02.540Z,17.00
2022-10-05T07:18:01.945Z,17.00
2022-10-05T07:19:01.899Z,17.00
2022-10-05T07:20:01.924Z,17.00
2022-10-05T07:21:01.972Z,17.00
2022-10-05T07:22:02.727Z,15.90
2022-10-05T07:23:02.557Z,15.90
2022-10-05T07:24:02.160Z,15.90
2022-10-05T07:25:02.222Z,15.90
2022-10-05T07:26:02.440Z,15.90
2022-10-05T07:27:02.192Z,16.00
2022-10-05T07:28:02.136Z,16.00
2022-10-05T07:29:02.053Z,16.00
2022-10-05T07:30:02.096Z,16.00
2022-10-05T07:31:02.043Z,16.00
2022-10-05T07:32:02.836Z,17.50
2022-10-05T07:33:02.634Z,17.50
2022-10-05T07:34:02.598Z,17.50
2022-10-05T07:35:02.674Z,17.50
2022-10-05T07:36:02.719Z,17.50
2022-10-05T07:37:02.559Z,17.60
2022-10-05T07:38:02.193Z,17.60
2022-10-05T07:39:02.153Z,17.60
2022-10-05T07:40:02.197Z,17.60
2022-10-05T07:41:02.375Z,17.60
2022-10-05T07:42:03.131Z,18.00
2022-10-05T07:43:02.909Z,18.00
2022-10-05T07:44:03.796Z,18.00
2022-10-05T07:45:02.864Z,18.00
2022-10-05T07:46:03.009Z,18.00
2022-10-05T07:47:02.776Z,18.10
2022-10-05T07:48:02.574Z,18.10
2022-10-05T07:49:02.625Z,18.10
2022-10-05T07:50:02.629Z,18.10
2022-10-05T07:51:02.515Z,18.10
2022-10-05T07:52:03.095Z,19.70
2022-10-05T07:53:02.560Z,19.70
2022-10-05T07:54:03.073Z,19.70
2022-10-05T07:55:02.936Z,19.70
2022-10-05T07:56:03.039Z,19.70
2022-10-05T07:57:01.912Z,20.10
2022-10-05T07:58:01.951Z,20.10
2022-10-05T07:59:01.903Z,20.10
2022-10-05T08:00:02.364Z,20.10
2022-10-05T08:01:02.314Z,20.10
2022-10-05T08:02:02.429Z,20.30
2022-10-05T08:03:02.517Z,20.30
2022-10-05T08:04:02.573Z,20.30
2022-10-05T08:05:02.649Z,20.30
2022-10-05T08:06:02.748Z,20.30
2022-10-05T08:07:02.823Z,18.30
2022-10-05T08:08:02.985Z,18.30
2022-10-05T08:09:02.813Z,18.30
2022-10-05T08:10:03.428Z,18.30
2022-10-05T08:11:03.178Z,18.30
2022-10-05T08:12:02.391Z,19.70
2022-10-05T08:13:02.631Z,19.70
2022-10-05T08:14:02.651Z,19.70
2022-10-05T08:15:02.851Z,19.70
2022-10-05T08:16:02.847Z,19.70
2022-10-05T08:17:03.025Z,18.10
2022-10-05T08:18:03.117Z,18.10
2022-10-05T08:19:03.035Z,18.10
2022-10-05T08:20:03.496Z,18.10
2022-10-05T08:21:03.507Z,18.10
2022-10-05T08:22:02.359Z,18.90
2022-10-05T08:23:02.461Z,18.90
2022-10-05T08:24:02.623Z,18.90
2022-10-05T08:25:02.504Z,18.90
2022-10-05T08:26:02.559Z,18.90
2022-10-05T08:27:02.867Z,21.80
2022-10-05T08:28:03.091Z,21.80
2022-10-05T08:29:03.197Z,21.80
2022-10-05T08:30:03.099Z,21.80
2022-10-05T08:31:03.258Z,21.80
2022-10-05T08:32:02.459Z,21.80
2022-10-05T08:33:02.495Z,21.80
2022-10-05T08:34:02.602Z,21.80
2022-10-05T08:35:02.616Z,21.80
2022-10-05T08:36:02.800Z,21.80
2022-10-05T08:37:02.757Z,20.00
2022-10-05T08:38:02.665Z,20.00
2022-10-05T08:39:02.743Z,20.00
2022-10-05T08:40:03.350Z,20.00
2022-10-05T08:41:03.292Z,20.00
2022-10-05T08:42:03.025Z,21.20
2022-10-05T08:43:03.115Z,21.20
2022-10-05T08:44:03.372Z,21.20
2022-10-05T08:45:03.331Z,21.20
2022-10-05T08:46:03.393Z,21.20
2022-10-05T08:47:03.243Z,21.50
2022-10-05T08:48:03.334Z,21.50
2022-10-05T08:49:03.384Z,21.50
2022-10-05T08:50:03.242Z,21.50
2022-10-05T08:51:03.227Z,21.50
2022-10-05T08:52:03.266Z,19.30
2022-10-05T08:53:03.368Z,19.30
2022-10-05T08:54:03.461Z,19.30
2022-10-05T08:55:03.560Z,19.30
2022-10-05T08:56:04.558Z,19.30
2022-10-05T08:57:02.673Z,16.80
2022-10-05T08:58:02.764Z,16.80
2022-10-05T08:59:02.835Z,16.80
2022-10-05T09:00:02.889Z,16.80
2022-10-05T09:01:02.997Z,16.80
2022-10-05T09:02:01.737Z,16.80
2022-10-05T09:03:02.044Z,16.80
2022-10-05T09:04:02.143Z,16.80
2022-10-05T09:05:02.229Z,16.80
2022-10-05T09:06:02.322Z,16.80
2022-10-05T09:07:02.171Z,14.40
2022-10-05T09:08:02.260Z,14.40
2022-10-05T09:09:02.312Z,14.40
2022-10-05T09:10:02.361Z,14.40
2022-10-05T09:11:02.404Z,14.40
2022-10-05T09:12:02.380Z,15.70
2022-10-05T09:13:02.611Z,15.70
2022-10-05T09:14:02.616Z,15.70
2022-10-05T09:15:24.169Z,15.70
2022-10-05T09:16:02.652Z,15.70
2022-10-05T09:17:02.097Z,13.80
2022-10-05T09:18:02.169Z,13.80
2022-10-05T09:19:02.192Z,13.80
2022-10-05T09:20:02.019Z,13.80
2022-10-05T09:21:01.995Z,13.80
2022-10-05T09:22:02.726Z,12.80
2022-10-05T09:23:02.963Z,12.80
2022-10-05T09:24:02.732Z,12.80
2022-10-05T09:25:02.641Z,12.80
2022-10-05T09:26:02.548Z,12.80
2022-10-05T09:27:02.976Z,12.80
2022-10-05T09:28:03.201Z,12.80
2022-10-05T09:29:02.938Z,12.80
2022-10-05T09:30:03.008Z,12.80
2022-10-05T09:31:03.148Z,12.80
2022-10-05T09:32:02.553Z,10.40
2022-10-05T09:33:02.566Z,10.40
2022-10-05T09:34:02.494Z,10.40
2022-10-05T09:35:02.604Z,10.40
2022-10-05T09:36:02.834Z,10.40
2022-10-05T09:37:02.626Z,9.10
2022-10-05T09:38:02.617Z,9.10
2022-10-05T09:39:02.615Z,9.10
2022-10-05T09:40:02.534Z,9.10
2022-10-05T09:41:02.501Z,9.10
2022-10-05T09:42:03.050Z,8.10
2022-10-05T09:43:03.133Z,8.10
2022-10-05T09:44:03.226Z,8.10
2022-10-05T09:45:03.184Z,8.10
2022-10-05T09:46:03.220Z,8.10
2022-10-05T09:47:02.798Z,9.00
2022-10-05T09:48:02.371Z,9.00
2022-10-05T09:49:02.417Z,9.00
2022-10-05T09:50:02.463Z,9.00
2022-10-05T09:51:02.343Z,9.00
2022-10-05T09:52:02.366Z,8.70
2022-10-05T09:53:02.401Z,8.70
2022-10-05T09:54:02.490Z,8.70
2022-10-05T09:55:02.189Z,8.70
2022-10-05T09:56:01.841Z,8.70
2022-10-05T09:57:02.587Z,7.60
2022-10-05T09:58:02.610Z,7.60
2022-10-05T09:59:02.655Z,7.60
2022-10-05T10:00:02.720Z,7.60
2022-10-05T10:01:09.662Z,7.60
2022-10-05T10:02:02.940Z,8.20
2022-10-05T10:03:03.140Z,8.20
2022-10-05T10:04:03.005Z,8.20
2022-10-05T10:05:02.896Z,8.20
2022-10-05T10:06:02.908Z,8.20
2022-10-05T10:07:02.612Z,8.50
2022-10-05T10:08:02.644Z,8.50
2022-10-05T10:09:02.339Z,8.50
2022-10-05T10:10:02.377Z,8.50
2022-10-05T10:11:02.337Z,8.50
2022-10-05T10:12:02.189Z,6.60
2022-10-05T10:13:01.975Z,6.60
2022-10-05T10:14:01.817Z,6.60
2022-10-05T10:15:03.148Z,6.60
2022-10-05T10:16:02.151Z,6.60
2022-10-05T10:17:02.623Z,8.60
2022-10-05T10:18:02.388Z,8.60
2022-10-05T10:19:02.384Z,8.60
2022-10-05T10:20:02.302Z,8.60
2022-10-05T10:21:02.558Z,8.60
2022-10-05T10:22:01.538Z,5.70
2022-10-05T10:23:01.581Z,5.70
2022-10-05T10:24:02.271Z,5.70
2022-10-05T10:25:02.014Z,5.70
2022-10-05T10:26:02.024Z,5.70
2022-10-05T10:27:01.606Z,7.60
2022-10-05T10:28:01.742Z,7.60
2022-10-05T10:29:01.920Z,7.60
2022-10-05T10:30:01.987Z,7.60
2022-10-05T10:31:01.910Z,7.60
2022-10-05T10:32:01.920Z,4.70
2022-10-05T10:33:02.602Z,4.70
2022-10-05T10:34:02.237Z,4.70
2022-10-05T10:35:02.426Z,4.70
2022-10-05T10:36:06.025Z,4.70
2022-10-05T10:37:02.259Z,5.00
2022-10-05T10:38:02.857Z,5.00
2022-10-05T10:39:02.488Z,5.00
2022-10-05T10:40:02.528Z,5.00
2022-10-05T10:41:02.477Z,5.00
2022-10-05T10:42:02.572Z,4.20
2022-10-05T10:43:03.255Z,4.20
2022-10-05T10:44:02.976Z,4.20
2022-10-05T10:45:03.021Z,4.20
2022-10-05T10:46:03.067Z,4.20
2022-10-05T10:47:03.154Z,3.50
2022-10-05T10:48:02.746Z,3.50
2022-10-05T10:49:02.511Z,3.50
2022-10-05T10:50:02.552Z,3.50
2022-10-05T10:51:02.580Z,3.50
2022-10-05T10:52:02.511Z,5.00
2022-10-05T10:53:02.311Z,5.00
2022-10-05T10:54:01.955Z,5.00
2022-10-05T10:55:01.712Z,5.00
2022-10-05T10:56:01.920Z,5.00
2022-10-05T10:57:01.792Z,3.80
2022-10-05T10:58:02.541Z,3.80
2022-10-05T10:59:02.609Z,3.80
2022-10-05T11:00:02.563Z,3.80
2022-10-05T11:01:02.694Z,3.80
2022-10-05T11:02:02.725Z,3.30
2022-10-05T11:03:02.667Z,3.30
2022-10-05T11:04:02.803Z,3.30
2022-10-05T11:05:02.658Z,3.30
2022-10-05T11:06:02.530Z,3.30
2022-10-05T11:07:02.538Z,4.30
2022-10-05T11:08:03.440Z,4.30
2022-10-05T11:09:02.911Z,4.30
2022-10-05T11:10:02.926Z,4.30
2022-10-05T11:11:03.504Z,4.30
2022-10-05T11:12:03.555Z,4.30
2022-10-05T11:13:03.328Z,4.30
2022-10-05T11:14:03.566Z,4.30
2022-10-05T11:15:03.545Z,4.30
2022-10-05T11:16:03.697Z,4.30
2022-10-05T11:17:03.552Z,5.10
2022-10-05T11:18:03.559Z,5.10
2022-10-05T11:19:03.599Z,5.10
2022-10-05T11:20:04.684Z,5.10
2022-10-05T11:21:03.449Z,5.10
2022-10-05T11:22:03.454Z,4.20
2022-10-05T11:23:03.098Z,4.20
2022-10-05T11:24:03.127Z,4.20
2022-10-05T11:25:03.167Z,4.20
2022-10-05T11:26:03.046Z,4.20
2022-10-05T11:27:02.935Z,3.80
2022-10-05T11:28:03.809Z,3.80
2022-10-05T11:29:03.555Z,3.80
2022-10-05T11:30:03.444Z,3.80
2022-10-05T11:31:03.531Z,3.80
2022-10-05T11:32:03.377Z,6.30
2022-10-05T11:33:02.777Z,6.30
2022-10-05T11:34:03.184Z,6.30
2022-10-05T11:35:03.194Z,6.30
2022-10-05T11:36:03.290Z,6.30
2022-10-05T11:37:03.302Z,4.20
2022-10-05T11:38:03.415Z,4.20
2022-10-05T11:39:03.461Z,4.20
2022-10-05T11:40:03.468Z,4.20
2022-10-05T11:41:03.791Z,4.20
2022-10-05T11:42:03.788Z,5.10
2022-10-05T11:43:03.725Z,5.10
2022-10-05T11:44:06.320Z,5.10
2022-10-05T11:45:03.903Z,5.10
2022-10-05T11:46:03.804Z,5.10
2022-10-05T11:47:03.847Z,5.70
2022-10-05T11:48:03.491Z,5.70
2022-10-05T11:49:03.594Z,5.70
2022-10-05T11:50:03.608Z,5.70
2022-10-05T11:51:03.582Z,5.70
2022-10-05T11:52:03.459Z,3.40
2022-10-05T11:53:03.148Z,3.40
2022-10-05T11:54:03.139Z,3.40
2022-10-05T11:55:10.850Z,3.40
2022-10-05T11:56:03.073Z,3.40
2022-10-05T11:57:03.093Z,5.10
2022-10-05T11:58:03.762Z,5.10
2022-10-05T11:59:03.774Z,5.10
2022-10-05T12:00:03.762Z,5.10
2022-10-05T12:01:03.792Z,5.10
2022-10-05T12:02:03.667Z,4.10
2022-10-05T12:03:02.508Z,4.10
2022-10-05T12:04:02.561Z,4.10
2022-10-05T12:05:02.293Z,4.10
2022-10-05T12:06:02.273Z,4.10
2022-10-05T12:07:02.318Z,3.70
2022-10-05T12:08:03.073Z,3.70
2022-10-05T12:09:02.865Z,3.70
2022-10-05T12:10:02.803Z,3.70
2022-10-05T12:11:02.833Z,3.70
2022-10-05T12:12:02.829Z,4.90
2022-10-05T12:13:02.482Z,4.90
2022-10-05T12:14:02.534Z,4.90
2022-10-05T12:15:02.086Z,4.90
2022-10-05T12:16:02.648Z,4.90
2022-10-05T12:17:01.948Z,4.10
2022-10-05T12:18:02.662Z,4.10
2022-10-05T12:19:02.303Z,4.10
2022-10-05T12:20:02.331Z,4.10
2022-10-05T12:21:02.613Z,4.10
2022-10-05T12:22:02.387Z,4.10
2022-10-05T12:23:02.483Z,4.10
2022-10-05T12:24:03.110Z,4.10
2022-10-05T12:25:02.804Z,4.10
2022-10-05T12:26:02.692Z,4.10
2022-10-05T12:27:02.638Z,2.80
2022-10-05T12:28:02.404Z,2.80
2022-10-05T12:29:02.133Z,2.80
2022-10-05T12:30:02.277Z,2.80
2022-10-05T12:31:02.112Z,2.80
2022-10-05T12:32:01.984Z,3.90
2022-10-05T12:33:02.517Z,3.90
2022-10-05T12:34:02.321Z,3.90
2022-10-05T12:35:02.385Z,3.90
2022-10-05T12:36:02.514Z,3.90
2022-10-05T12:37:04.813Z,3.90
2022-10-05T12:38:03.140Z,3.90
2022-10-05T12:39:02.844Z,3.90
2022-10-05T12:40:02.740Z,3.90
2022-10-05T12:41:02.756Z,3.90
2022-10-05T12:42:02.680Z,2.40
2022-10-05T12:43:01.783Z,2.40
2022-10-05T12:44:02.150Z,2.40
2022-10-05T12:45:01.833Z,2.40
2022-10-05T12:46:02.095Z,2.40
2022-10-05T12:47:02.340Z,4.00
2022-10-05T12:48:02.055Z,4.00
2022-10-05T12:49:02.642Z,4.00
2022-10-05T12:50:02.592Z,4.00
2022-10-05T12:51:02.719Z,4.00
2022-10-05T12:52:02.319Z,3.10
2022-10-05T12:53:02.834Z,3.10
2022-10-05T12:54:02.518Z,3.10
2022-10-05T12:55:02.736Z,3.10
2022-10-05T12:56:02.657Z,3.10
2022-10-05T12:57:02.697Z,4.00
2022-10-05T12:58:02.735Z,4.00
2022-10-05T12:59:03.283Z,4.00